createdAt,value
2023-05-25T00:00:11.250Z,12.67
2023-05-25T00:02:39.595Z,11.67
2023-05-25T00:05:09.503Z,10.07
2023-05-25T00:07:36.086Z,10.97
2023-05-25T00:10:04.704Z,11.33
2023-05-25T00:12:31.531Z,7.27
2023-05-25T00:14:58.174Z,9.73
2023-05-25T00:17:25.067Z,11.17
2023-05-25T00:19:51.698Z,11.47
2023-05-25T00:22:18.233Z,8.50
2023-05-25T00:24:44.699Z,12.47
2023-05-25T00:27:11.246Z,12.20
2023-05-25T00:29:37.695Z,8.20
2023-05-25T00:32:04.833Z,9.77
2023-05-25T00:34:31.289Z,9.67
2023-05-25T00:36:57.905Z,15.43
2023-05-25T00:39:24.387Z,9.30
2023-05-25T00:41:50.973Z,10.97
2023-05-25T00:44:22.173Z,13.53
2023-05-25T00:46:50.975Z,9.53
2023-05-25T00:49:19.525Z,13.87
2023-05-25T00:51:47.693Z,10.77
2023-05-25T00:54:16.154Z,13.27
2023-05-25T00:56:58.080Z,12.70
2023-05-25T00:59:35.496Z,12.07
2023-05-25T01:02:07.751Z,12.20
2023-05-25T01:04:38.140Z,10.70
2023-05-25T01:07:09.978Z,10.63
2023-05-25T01:09:41.056Z,13.10
2023-05-25T01:12:09.278Z,11.00
2023-05-25T01:14:38.736Z,11.40
2023-05-25T01:17:06.528Z,14.03
2023-05-25T01:19:33.839Z,11.07
2023-05-25T01:22:07.254Z,14.30
2023-05-25T01:24:53.982Z,11.70
2023-05-25T01:27:32.414Z,9.77
2023-05-25T01:29:59.809Z,12.47
2023-05-25T01:32:27.108Z,10.70
2023-05-25T01:34:56.055Z,8.87
2023-05-25T01:37:24.635Z,9.50
2023-05-25T01:39:51.112Z,10.90
2023-05-25T01:42:17.743Z,12.83
2023-05-25T01:44:44.804Z,8.87
2023-05-25T01:47:26.586Z,10.53
2023-05-25T01:50:00.161Z,9.63
2023-05-25T01:52:30.538Z,8.77
2023-05-25T01:55:05.501Z,10.13
2023-05-25T01:57:37.356Z,7.90
2023-05-25T02:00:04.952Z,9.13
2023-05-25T02:02:42.862Z,9.30
2023-05-25T02:05:11.110Z,7.70
2023-05-25T02:07:38.296Z,9.63
2023-05-25T02:10:05.430Z,9.77
2023-05-25T02:12:32.112Z,8.40
2023-05-25T02:14:58.710Z,9.67
2023-05-25T02:17:27.947Z,8.93
2023-05-25T02:19:54.659Z,8.67
2023-05-25T02:22:22.264Z,10.07
2023-05-25T02:24:48.847Z,9.73
2023-05-25T02:27:15.519Z,8.77
2023-05-25T02:29:42.212Z,8.10
2023-05-25T02:32:09.841Z,9.77
2023-05-25T02:34:36.314Z,14.63
2023-05-25T02:37:02.825Z,10.57
2023-05-25T02:39:29.274Z,11.47
2023-05-25T02:41:58.275Z,7.80
2023-05-25T02:44:25.632Z,15.47
2023-05-25T02:46:52.307Z,8.13
2023-05-25T02:49:18.964Z,13.77
2023-05-25T02:51:45.618Z,8.83
2023-05-25T02:54:12.151Z,12.60
2023-05-25T02:56:39.608Z,9.53
2023-05-25T02:59:07.653Z,14.47
2023-05-25T03:01:35.508Z,8.73
2023-05-25T03:04:02.299Z,10.83
2023-05-25T03:06:33.537Z,10.83
2023-05-25T03:09:09.601Z,11.13
2023-05-25T03:11:37.788Z,11.83
2023-05-25T03:14:04.629Z,9.23
2023-05-25T03:16:36.665Z,8.13
2023-05-25T03:19:05.402Z,8.80
2023-05-25T03:21:33.935Z,12.87
2023-05-25T03:24:00.477Z,10.13
2023-05-25T03:26:27.046Z,9.37
2023-05-25T03:28:54.009Z,10.73
2023-05-25T03:31:23.556Z,11.83
2023-05-25T03:33:50.134Z,13.53
2023-05-25T03:36:18.344Z,11.13
2023-05-25T03:38:45.205Z,14.40
2023-05-25T03:41:11.729Z,14.23
2023-05-25T03:43:38.526Z,12.97
2023-05-25T03:46:06.908Z,8.87
2023-05-25T03:48:33.440Z,11.17
2023-05-25T03:50:59.946Z,12.53
2023-05-25T03:53:26.971Z,10.63
2023-05-25T03:55:53.521Z,11.50
2023-05-25T03:58:20.096Z,9.80
2023-05-25T04:00:49.114Z,10.87
2023-05-25T04:03:16.096Z,13.17
2023-05-25T04:05:43.597Z,9.93
2023-05-25T04:08:10.744Z,9.97
2023-05-25T04:10:37.440Z,11.80
2023-05-25T04:13:03.911Z,7.17
2023-05-25T04:15:30.743Z,7.57
2023-05-25T04:18:08.796Z,6.43
2023-05-25T04:20:36.625Z,9.80
2023-05-25T04:23:07.611Z,10.53
2023-05-25T04:25:34.975Z,10.80
2023-05-25T04:28:01.470Z,8.83
2023-05-25T04:30:45.794Z,7.80
2023-05-25T04:33:29.409Z,7.80
2023-05-25T04:36:03.885Z,9.50
2023-05-25T04:38:30.811Z,8.43
2023-05-25T04:41:01.953Z,10.00
2023-05-25T04:43:29.915Z,7.13
2023-05-25T04:45:59.652Z,8.83
2023-05-25T04:48:28.519Z,8.60
2023-05-25T04:50:58.119Z,11.03
2023-05-25T04:53:24.784Z,11.33
2023-05-25T04:55:51.767Z,14.43
2023-05-25T04:58:18.421Z,6.97
2023-05-25T05:00:45.504Z,10.37
2023-05-25T05:03:13.466Z,11.67
2023-05-25T05:05:40.224Z,8.23
2023-05-25T05:08:10.582Z,11.00
2023-05-25T05:10:37.355Z,9.63
2023-05-25T05:13:03.831Z,10.00
2023-05-25T05:15:30.904Z,12.00
2023-05-25T05:17:59.385Z,10.80
2023-05-25T05:20:25.983Z,9.90
2023-05-25T05:22:53.393Z,9.73
2023-05-25T05:25:20.063Z,10.10
2023-05-25T05:27:47.025Z,10.93
2023-05-25T05:30:22.239Z,11.97
2023-05-25T05:32:48.782Z,9.00
2023-05-25T05:35:16.304Z,7.63
2023-05-25T05:37:46.988Z,11.20
2023-05-25T05:40:13.760Z,7.20
2023-05-25T05:42:42.399Z,10.57
2023-05-25T05:45:10.230Z,7.97
2023-05-25T05:47:37.278Z,9.37
2023-05-25T05:50:04.256Z,11.53
2023-05-25T05:52:30.895Z,7.80
2023-05-25T05:54:57.450Z,8.05
2023-05-25T05:57:23.991Z,8.10
2023-05-25T05:59:50.692Z,8.90
2023-05-25T06:02:18.229Z,8.40
2023-05-25T06:04:45.112Z,7.17
2023-05-25T06:07:12.054Z,5.47
2023-05-25T06:09:38.660Z,7.50
2023-05-25T06:12:06.177Z,9.65
2023-05-25T06:14:33.623Z,6.90
2023-05-25T06:17:02.826Z,9.98
2023-05-25T06:19:29.594Z,10.32
2023-05-25T06:21:56.859Z,7.65
2023-05-25T06:24:23.304Z,9.43
2023-05-25T06:26:49.890Z,7.93
2023-05-25T06:29:17.390Z,10.38
2023-05-25T06:31:44.375Z,7.35
2023-05-25T06:34:10.837Z,7.90
2023-05-25T06:36:38.020Z,9.73
2023-05-25T06:39:04.516Z,7.40
2023-05-25T06:41:30.994Z,9.35
2023-05-25T06:43:57.798Z,7.68
2023-05-25T06:46:33.003Z,6.60
2023-05-25T06:49:00.893Z,8.48
2023-05-25T06:51:27.802Z,8.65
2023-05-25T06:53:57.345Z,9.30
2023-05-25T06:56:24.473Z,9.38
2023-05-25T06:58:51.134Z,8.23
2023-05-25T07:01:17.829Z,7.57
2023-05-25T07:03:44.288Z,7.88
2023-05-25T07:06:12.179Z,9.65
2023-05-25T07:08:38.871Z,10.38
2023-05-25T07:11:05.486Z,9.20
2023-05-25T07:13:31.934Z,8.13
2023-05-25T07:15:58.400Z,8.63
2023-05-25T07:18:26.214Z,9.57
2023-05-25T07:20:53.444Z,8.37
2023-05-25T07:23:20.040Z,9.67
2023-05-25T07:25:46.965Z,6.93
2023-05-25T07:28:13.596Z,8.33
2023-05-25T07:30:40.827Z,10.45
2023-05-25T07:33:07.332Z,7.13
2023-05-25T07:35:35.473Z,9.33
2023-05-25T07:38:06.719Z,9.43
2023-05-25T07:40:33.308Z,7.77
2023-05-25T07:42:59.768Z,10.97
2023-05-25T07:45:26.412Z,9.57
2023-05-25T07:47:52.941Z,9.80
2023-05-25T07:50:19.730Z,7.45
2023-05-25T07:52:46.435Z,12.85
2023-05-25T07:55:13.090Z,9.23
2023-05-25T07:57:39.584Z,10.02
2023-05-25T08:00:08.281Z,7.13
2023-05-25T08:02:41.078Z,7.63
2023-05-25T08:05:08.270Z,9.80
2023-05-25T08:07:34.800Z,8.77
2023-05-25T08:10:01.973Z,9.93
2023-05-25T08:12:46.197Z,9.18
2023-05-25T08:15:15.122Z,11.38
2023-05-25T08:17:41.822Z,6.13
2023-05-25T08:20:09.365Z,7.00
2023-05-25T08:22:36.033Z,9.57
2023-05-25T08:25:04.250Z,10.95
2023-05-25T08:27:31.782Z,6.53
2023-05-25T08:30:00.573Z,7.78
2023-05-25T08:32:27.155Z,10.40
2023-05-25T08:34:53.626Z,7.97
2023-05-25T08:37:22.528Z,6.55
2023-05-25T08:39:49.209Z,9.00
2023-05-25T08:42:15.811Z,11.73
2023-05-25T08:44:42.731Z,8.32
2023-05-25T08:47:12.164Z,9.05
2023-05-25T08:49:39.511Z,6.15
2023-05-25T08:52:10.571Z,7.20
2023-05-25T08:54:38.085Z,9.25
2023-05-25T08:57:16.798Z,7.13
2023-05-25T08:59:50.422Z,7.55
2023-05-25T09:02:22.972Z,7.28
2023-05-25T09:04:49.564Z,10.40
2023-05-25T09:07:16.508Z,7.88
2023-05-25T09:09:43.811Z,10.13
2023-05-25T09:12:10.909Z,7.22
2023-05-25T09:14:38.011Z,9.23
2023-05-25T09:17:04.766Z,10.27
2023-05-25T09:19:31.313Z,12.45
2023-05-25T09:22:13.338Z,7.85
2023-05-25T09:24:44.088Z,10.00
2023-05-25T09:27:12.062Z,7.72
2023-05-25T09:29:38.668Z,6.75
2023-05-25T09:32:06.758Z,7.28
2023-05-25T09:34:35.995Z,7.18
2023-05-25T09:37:17.324Z,8.10
2023-05-25T09:39:44.543Z,8.55
2023-05-25T09:42:11.971Z,6.85
2023-05-25T09:44:39.621Z,7.57
2023-05-25T09:47:06.473Z,9.52
2023-05-25T09:49:33.095Z,8.55
2023-05-25T09:52:00.652Z,6.38
2023-05-25T09:54:27.488Z,9.13
2023-05-25T09:56:54.448Z,7.05
2023-05-25T09:59:23.376Z,6.97
2023-05-25T10:01:53.707Z,7.88
2023-05-25T10:04:21.065Z,7.70
2023-05-25T10:06:51.580Z,8.55
2023-05-25T10:09:19.768Z,10.82
2023-05-25T10:11:47.185Z,9.30
2023-05-25T10:14:16.800Z,8.40
2023-05-25T10:16:48.105Z,9.57
2023-05-25T10:19:37.183Z,8.25
2023-05-25T10:22:08.043Z,9.35
2023-05-25T10:25:04.726Z,6.05
2023-05-25T10:28:00.217Z,9.68
2023-05-25T10:30:30.153Z,8.70
2023-05-25T10:32:57.380Z,8.15
2023-05-25T10:35:24.490Z,7.25
2023-05-25T10:37:52.751Z,8.35
2023-05-25T10:40:22.048Z,8.45
2023-05-25T10:42:51.209Z,6.60
2023-05-25T10:45:18.627Z,6.60
2023-05-25T10:47:46.447Z,9.70
2023-05-25T10:50:27.017Z,6.43
2023-05-25T10:53:07.262Z,5.55
2023-05-25T10:55:49.217Z,6.38
2023-05-25T10:58:17.359Z,6.20
2023-05-25T11:00:56.980Z,7.32
2023-05-25T11:04:02.632Z,8.73
2023-05-25T11:06:40.202Z,6.28
2023-05-25T11:09:07.239Z,4.95
2023-05-25T11:11:43.164Z,8.43
2023-05-25T11:14:31.974Z,7.25
2023-05-25T11:17:20.705Z,7.88
2023-05-25T11:19:51.384Z,8.38
2023-05-25T11:22:21.655Z,7.63
2023-05-25T11:24:53.756Z,9.00
2023-05-25T11:27:23.938Z,9.32
2023-05-25T11:29:51.999Z,7.65
2023-05-25T11:32:18.713Z,6.70
2023-05-25T11:34:47.045Z,7.10
2023-05-25T11:37:17.122Z,7.05
2023-05-25T11:39:48.242Z,9.70
2023-05-25T11:42:15.308Z,5.75
2023-05-25T11:44:42.208Z,9.27
2023-05-25T11:47:18.838Z,5.90
2023-05-25T11:49:47.076Z,6.93
2023-05-25T11:52:15.128Z,6.25
2023-05-25T11:54:42.184Z,6.10
2023-05-25T11:57:18.700Z,5.30
2023-05-25T11:59:56.057Z,6.88
2023-05-25T12:02:23.858Z,4.38
2023-05-25T12:04:57.463Z,7.40
2023-05-25T12:07:26.323Z,5.03
2023-05-25T12:10:04.760Z,7.45
2023-05-25T12:12:40.651Z,5.70
2023-05-25T12:15:12.014Z,7.10
2023-05-25T12:17:41.734Z,5.38
2023-05-25T12:20:10.945Z,5.43
2023-05-25T12:22:39.341Z,6.78
2023-05-25T12:25:07.590Z,8.25
2023-05-25T12:27:34.509Z,6.75
2023-05-25T12:30:00.977Z,6.38
2023-05-25T12:32:27.514Z,7.07
2023-05-25T12:35:02.828Z,8.73
2023-05-25T12:37:29.728Z,7.15
2023-05-25T12:39:59.460Z,6.40
2023-05-25T12:42:27.509Z,6.47
2023-05-25T12:44:57.923Z,5.90
2023-05-25T12:47:27.864Z,5.93
2023-05-25T12:50:13.444Z,3.88
2023-05-25T12:52:44.141Z,4.97
2023-05-25T12:55:19.954Z,9.32
2023-05-25T12:57:52.786Z,5.40
2023-05-25T13:00:27.843Z,6.95
2023-05-25T13:02:54.800Z,6.07
2023-05-25T13:05:27.719Z,5.80
2023-05-25T13:07:56.243Z,6.10
2023-05-25T13:10:23.519Z,5.13
2023-05-25T13:12:51.691Z,5.18
2023-05-25T13:15:22.852Z,6.32
2023-05-25T13:17:51.060Z,7.38
2023-05-25T13:20:19.984Z,5.72
2023-05-25T13:22:48.895Z,6.97
2023-05-25T13:25:15.875Z,6.53
2023-05-25T13:27:47.755Z,6.65
2023-05-25T13:30:15.288Z,6.05
2023-05-25T13:32:45.497Z,6.45
2023-05-25T13:35:18.538Z,4.75
2023-05-25T13:37:47.844Z,5.97
2023-05-25T13:40:14.985Z,5.53
2023-05-25T13:42:41.547Z,6.40
2023-05-25T13:45:08.657Z,6.53
2023-05-25T13:47:35.218Z,4.82
2023-05-25T13:50:01.795Z,5.65
2023-05-25T13:52:28.619Z,4.72
2023-05-25T13:54:55.200Z,5.80
2023-05-25T13:57:22.490Z,5.18
2023-05-25T13:59:49.009Z,7.47
2023-05-25T14:02:15.637Z,4.55
2023-05-25T14:04:42.131Z,5.55
2023-05-25T14:07:08.911Z,5.43
2023-05-25T14:09:35.579Z,6.25
2023-05-25T14:12:03.028Z,5.20
2023-05-25T14:14:32.217Z,4.57
2023-05-25T14:17:00.528Z,7.82
2023-05-25T14:19:27.470Z,6.55
2023-05-25T14:22:11.135Z,3.95
2023-05-25T14:24:38.966Z,6.80
2023-05-25T14:27:07.053Z,7.05
2023-05-25T14:29:33.780Z,6.20
2023-05-25T14:32:00.337Z,6.00
2023-05-25T14:34:26.893Z,6.28
2023-05-25T14:36:53.445Z,5.90
2023-05-25T14:39:19.889Z,5.70
2023-05-25T14:41:46.426Z,5.57
2023-05-25T14:44:12.999Z,7.05
2023-05-25T14:46:39.558Z,7.68
2023-05-25T14:49:06.069Z,4.32
2023-05-25T14:51:32.534Z,4.45
2023-05-25T14:54:01.245Z,5.72
2023-05-25T14:56:28.385Z,6.03
2023-05-25T14:58:54.867Z,4.78
2023-05-25T15:01:23.678Z,5.10
2023-05-25T15:03:51.700Z,5.20
2023-05-25T15:06:18.382Z,7.30
2023-05-25T15:08:44.819Z,5.65
2023-05-25T15:11:11.311Z,5.22
2023-05-25T15:13:38.045Z,5.70
2023-05-25T15:16:04.860Z,5.60
2023-05-25T15:18:31.295Z,7.63
2023-05-25T15:20:58.148Z,7.03
2023-05-25T15:23:24.613Z,6.95
2023-05-25T15:25:51.136Z,7.07
2023-05-25T15:28:17.653Z,7.55
2023-05-25T15:30:44.248Z,7.13
2023-05-25T15:33:13.182Z,4.80
2023-05-25T15:35:39.833Z,7.95
2023-05-25T15:38:06.358Z,7.65
2023-05-25T15:40:32.982Z,8.15
2023-05-25T15:42:59.478Z,7.88
2023-05-25T15:45:26.345Z,7.47
2023-05-25T15:47:52.955Z,3.92
2023-05-25T15:50:19.615Z,7.72
2023-05-25T15:52:46.734Z,6.40
2023-05-25T15:55:13.232Z,3.75
2023-05-25T15:57:39.790Z,6.22
2023-05-25T16:00:06.790Z,6.60
2023-05-25T16:02:33.258Z,6.38
2023-05-25T16:04:59.753Z,5.47
2023-05-25T16:07:26.469Z,3.92
2023-05-25T16:09:53.112Z,7.03
2023-05-25T16:12:19.582Z,7.93
2023-05-25T16:14:46.109Z,5.50
2023-05-25T16:17:12.562Z,5.63
2023-05-25T16:19:39.024Z,6.53
2023-05-25T16:22:05.684Z,5.97
2023-05-25T16:24:33.207Z,7.70
2023-05-25T16:26:59.736Z,4.60
2023-05-25T16:29:26.232Z,6.00
2023-05-25T16:31:54.627Z,5.88
2023-05-25T16:34:21.970Z,4.90
2023-05-25T16:36:48.461Z,5.93
2023-05-25T16:39:15.007Z,4.47
2023-05-25T16:41:41.450Z,6.22
2023-05-25T16:44:08.103Z,6.75
2023-05-25T16:46:34.585Z,5.72
2023-05-25T16:49:01.289Z,5.88
2023-05-25T16:51:27.773Z,4.90
2023-05-25T16:53:54.388Z,5.25
2023-05-25T16:56:21.421Z,6.80
2023-05-25T16:58:47.939Z,4.80
2023-05-25T17:01:14.387Z,4.53
2023-05-25T17:03:41.247Z,5.78
2023-05-25T17:06:08.190Z,6.20
2023-05-25T17:08:36.253Z,4.47
2023-05-25T17:11:02.744Z,5.82
2023-05-25T17:13:29.306Z,6.30
2023-05-25T17:15:55.884Z,5.82
2023-05-25T17:18:22.435Z,4.25
2023-05-25T17:20:49.006Z,7.47
2023-05-25T17:23:18.446Z,6.90
2023-05-25T17:25:45.294Z,6.93
2023-05-25T17:28:11.930Z,5.70
2023-05-25T17:30:38.398Z,7.97
2023-05-25T17:33:04.964Z,5.88
2023-05-25T17:35:31.520Z,5.18
2023-05-25T17:37:57.971Z,7.40
2023-05-25T17:40:24.453Z,3.95
2023-05-25T17:42:50.898Z,3.88
2023-05-25T17:45:17.503Z,4.93
2023-05-25T17:47:43.992Z,5.60
2023-05-25T17:50:10.718Z,4.05
2023-05-25T17:52:37.165Z,3.85
2023-05-25T17:55:05.009Z,4.65
2023-05-25T17:57:31.587Z,4.78
2023-05-25T17:59:58.108Z,9.27
2023-05-25T18:02:24.842Z,5.43
2023-05-25T18:04:51.521Z,6.18
2023-05-25T18:07:19.599Z,5.97
2023-05-25T18:09:46.102Z,5.40
2023-05-25T18:12:12.579Z,4.85
2023-05-25T18:14:39.093Z,5.63
2023-05-25T18:17:05.596Z,5.78
2023-05-25T18:19:32.112Z,4.25
2023-05-25T18:21:58.575Z,4.32
2023-05-25T18:24:25.061Z,5.05
2023-05-25T18:26:51.683Z,5.47
2023-05-25T18:29:18.176Z,6.07
2023-05-25T18:31:47.199Z,7.68
2023-05-25T18:34:14.077Z,3.65
2023-05-25T18:36:40.577Z,5.28
2023-05-25T18:39:07.065Z,5.05
2023-05-25T18:41:33.713Z,5.53
2023-05-25T18:44:00.212Z,5.55
2023-05-25T18:46:28.167Z,7.05
2023-05-25T18:48:55.788Z,6.43
2023-05-25T18:51:25.586Z,5.85
2023-05-25T18:53:52.311Z,7.93
2023-05-25T18:56:19.400Z,4.88
2023-05-25T18:58:46.042Z,6.03
2023-05-25T19:01:12.589Z,8.05
2023-05-25T19:03:39.228Z,6.13
2023-05-25T19:06:05.876Z,5.80
2023-05-25T19:08:32.383Z,7.15
2023-05-25T19:10:58.831Z,5.03
2023-05-25T19:13:25.349Z,5.57
2023-05-25T19:15:51.901Z,8.23
2023-05-25T19:18:18.584Z,6.72
2023-05-25T19:20:45.135Z,6.07
2023-05-25T19:23:11.717Z,6.63
2023-05-25T19:25:38.262Z,4.15
2023-05-25T19:28:04.759Z,5.93
2023-05-25T19:30:31.251Z,9.07
2023-05-25T19:32:57.824Z,7.68
2023-05-25T19:35:24.376Z,8.02
2023-05-25T19:37:50.840Z,7.13
2023-05-25T19:40:17.448Z,6.43
2023-05-25T19:42:44.344Z,5.70
2023-05-25T19:45:11.187Z,6.35
2023-05-25T19:47:37.735Z,6.97
2023-05-25T19:50:04.647Z,6.57
2023-05-25T19:52:31.346Z,8.35
2023-05-25T19:54:57.795Z,7.47
2023-05-25T19:57:26.121Z,6.45
2023-05-25T19:59:52.770Z,5.90
2023-05-25T20:02:20.448Z,8.52
2023-05-25T20:04:47.341Z,7.80
2023-05-25T20:07:13.995Z,6.65
2023-05-25T20:09:41.358Z,8.45
2023-05-25T20:12:08.025Z,6.50
2023-05-25T20:14:34.553Z,6.22
2023-05-25T20:17:01.167Z,7.55
2023-05-25T20:19:27.623Z,7.60
2023-05-25T20:21:54.280Z,5.72
2023-05-25T20:24:21.997Z,7.18
2023-05-25T20:26:48.632Z,6.88
2023-05-25T20:29:15.249Z,6.95
2023-05-25T20:31:41.760Z,6.90
2023-05-25T20:34:08.309Z,10.68
2023-05-25T20:36:34.749Z,8.60
2023-05-25T20:39:02.954Z,7.90
2023-05-25T20:41:29.541Z,7.05
2023-05-25T20:43:56.126Z,9.13
2023-05-25T20:46:22.753Z,9.15
2023-05-25T20:48:49.297Z,8.93
2023-05-25T20:51:15.839Z,6.47
2023-05-25T20:53:42.310Z,7.18
2023-05-25T20:56:08.765Z,8.30
2023-05-25T20:58:37.396Z,10.70
2023-05-25T21:01:03.982Z,9.38
2023-05-25T21:03:30.672Z,8.85
2023-05-25T21:05:57.384Z,9.63
2023-05-25T21:08:24.106Z,7.88
2023-05-25T21:10:50.897Z,6.78
2023-05-25T21:13:17.363Z,8.25
2023-05-25T21:15:44.070Z,8.45
2023-05-25T21:18:10.816Z,9.52
2023-05-25T21:20:38.668Z,6.85
2023-05-25T21:23:05.322Z,9.23
2023-05-25T21:25:32.088Z,7.05
2023-05-25T21:27:58.556Z,8.10
2023-05-25T21:30:25.131Z,7.40
2023-05-25T21:32:51.716Z,10.30
2023-05-25T21:35:18.439Z,8.70
2023-05-25T21:37:45.665Z,7.72
2023-05-25T21:40:12.553Z,7.10
2023-05-25T21:42:39.154Z,8.70
2023-05-25T21:45:06.050Z,7.13
2023-05-25T21:47:32.532Z,8.90
2023-05-25T21:49:59.003Z,6.90
2023-05-25T21:52:25.571Z,7.07
2023-05-25T21:54:52.151Z,10.00
2023-05-25T21:57:18.720Z,8.80
2023-05-25T21:59:45.228Z,9.20
2023-05-25T22:02:11.817Z,8.68
2023-05-25T22:04:38.319Z,9.02
2023-05-25T22:07:04.892Z,6.05
2023-05-25T22:09:31.729Z,9.88
2023-05-25T22:11:58.344Z,9.85
2023-05-25T22:14:24.827Z,10.32
2023-05-25T22:16:51.446Z,8.70
2023-05-25T22:19:18.001Z,8.52
2023-05-25T22:21:44.680Z,9.32
2023-05-25T22:24:11.141Z,8.88
2023-05-25T22:26:37.696Z,7.78
2023-05-25T22:29:04.238Z,9.38
2023-05-25T22:31:30.949Z,12.82
2023-05-25T22:33:57.485Z,9.18
2023-05-25T22:36:23.935Z,9.55
2023-05-25T22:38:50.465Z,8.70
2023-05-25T22:41:16.953Z,10.05
2023-05-25T22:43:43.551Z,9.45
2023-05-25T22:46:10.156Z,13.35
2023-05-25T22:48:36.644Z,10.18
2023-05-25T22:51:03.284Z,8.68
2023-05-25T22:53:29.739Z,9.57
2023-05-25T22:55:56.312Z,9.25
2023-05-25T22:58:22.761Z,7.47
2023-05-25T23:00:49.218Z,8.40
2023-05-25T23:03:15.807Z,10.07
2023-05-25T23:05:42.508Z,9.48
2023-05-25T23:08:09.051Z,10.55
2023-05-25T23:10:35.896Z,10.07
2023-05-25T23:13:02.440Z,9.38
2023-05-25T23:15:30.653Z,10.57
2023-05-25T23:17:57.149Z,7.47
2023-05-25T23:20:23.823Z,8.57
2023-05-25T23:22:50.430Z,8.60
2023-05-25T23:25:17.042Z,8.35
2023-05-25T23:27:43.495Z,7.43
2023-05-25T23:30:10.515Z,10.63
2023-05-25T23:32:37.046Z,9.25
2023-05-25T23:35:04.062Z,9.90
2023-05-25T23:37:30.500Z,7.82
2023-05-25T23:39:57.114Z,7.95
2023-05-25T23:42:23.904Z,8.85
2023-05-25T23:44:50.391Z,10.07
2023-05-25T23:47:16.843Z,9.20
2023-05-25T23:49:43.428Z,11.13
2023-05-25T23:52:09.978Z,7.65
2023-05-25T23:54:36.471Z,8.68
2023-05-25T23:57:03.086Z,10.25
2023-05-25T23:59:29.566Z,13.50
